Time;durP1;ratioP1;P1;durP2;ratioP2;P2;SDS_P1;SDS_P2;PMS_P1;PMS_P2;Temp;Humidity;BMP_temperature;BMP_pressure;BME280_temperature;BME280_humidity;BME280_pressure;Samples;Min_cycle;Max_cycle;Signal;HPM_P1;HPM_P2
2023/05/14 00:02:19;;;;;;;150.32;68.90;;;;;;;18.92;45.26;101868.56;5014986;28;20094;-76
2023/05/14 00:04:45;;;;;;;147.85;63.85;;;;;;;18.92;45.60;101878.28;5005287;28;20478;-76
2023/05/14 00:07:10;;;;;;;138.68;62.33;;;;;;;18.91;45.13;101868.63;5032493;28;20191;-76
2023/05/14 00:09:36;;;;;;;146.77;64.65;;;;;;;18.90;45.14;101869.53;5014948;28;20438;-76
2023/05/14 00:12:01;;;;;;;146.70;63.47;;;;;;;18.89;45.43;101865.16;5014961;28;20036;-76
2023/05/14 00:14:26;;;;;;;146.93;63.65;;;;;;;18.89;45.48;101859.84;5014543;28;20021;-76
2023/05/14 00:16:52;;;;;;;151.23;64.72;;;;;;;18.88;45.04;101860.75;4989453;28;20058;-76
2023/05/14 00:19:17;;;;;;;151.68;65.40;;;;;;;18.89;45.48;101862.50;5032732;28;20483;-76
2023/05/14 00:21:42;;;;;;;149.60;64.75;;;;;;;18.88;45.27;101855.47;4998022;28;20038;-76
2023/05/14 00:24:08;;;;;;;166.40;65.93;;;;;;;18.86;45.23;101857.28;5032282;28;20483;-77
2023/05/14 00:26:33;;;;;;;147.52;63.30;;;;;;;18.86;45.29;101852.84;5024531;28;20051;-76
2023/05/14 00:28:58;;;;;;;146.65;64.63;;;;;;;18.85;45.76;101855.53;5013150;28;20429;-76
2023/05/14 00:31:24;;;;;;;148.55;64.70;;;;;;;18.85;45.00;101853.75;5014319;28;20471;-76
2023/05/14 00:33:49;;;;;;;140.63;63.70;;;;;;;18.84;45.47;101849.41;5014332;28;20024;-77
2023/05/14 00:36:15;;;;;;;149.85;66.40;;;;;;;18.83;45.49;101847.66;5014003;28;20475;-76
2023/05/14 00:38:40;;;;;;;146.95;64.38;;;;;;;18.82;45.73;101845.06;5005435;28;20025;-77
2023/05/14 00:41:05;;;;;;;148.02;64.28;;;;;;;18.82;45.09;101850.38;5013968;28;20076;-76
2023/05/14 00:43:32;;;;;;;145.15;64.95;;;;;;;18.82;45.37;101835.34;5024226;28;20395;-76
2023/05/14 00:45:58;;;;;;;142.07;64.95;;;;;;;18.82;45.84;101839.78;5030027;28;20508;-77
2023/05/14 00:48:23;;;;;;;140.90;63.35;;;;;;;18.82;45.90;101834.47;5014114;28;20029;-77
2023/05/14 00:50:49;;;;;;;149.98;64.30;;;;;;;18.81;45.60;101838.88;5029702;28;20025;-77
2023/05/14 00:53:15;;;;;;;145.27;64.13;;;;;;;18.81;45.10;101838.88;5008708;28;20036;-76
2023/05/14 00:55:41;;;;;;;147.93;63.85;;;;;;;18.81;45.55;101838.03;5027850;22;20041;-75
2023/05/14 00:58:10;;;;;;;142.15;60.80;;;;;;;18.79;45.57;101837.22;4991159;28;20022;-75
2023/05/14 01:00:37;;;;;;;148.57;62.65;;;;;;;18.80;45.55;101836.28;5031585;28;20068;-76
2023/05/14 01:03:06;;;;;;;139.18;62.00;;;;;;;18.79;45.51;101830.16;5015518;28;20456;-76
2023/05/14 01:05:59;;;;;;;137.63;59.75;;;;;;;18.78;45.92;101823.13;5002524;28;20368;-76
2023/05/14 01:08:54;;;;;;;155.82;65.22;;;;;;;18.79;45.48;101829.25;5012538;28;20037;-77
2023/05/14 01:11:43;;;;;;;141.45;60.38;;;;;;;18.80;45.39;101841.59;4996645;28;20022;-78
2023/05/14 01:14:33;;;;;;;155.82;63.45;;;;;;;18.78;45.65;101843.44;4983994;28;20069;-79
2023/05/14 01:17:00;;;;;;;149.68;62.10;;;;;;;18.78;45.77;101849.59;5010689;28;20080;-79
2023/05/14 01:19:38;;;;;;;148.15;62.63;;;;;;;18.78;45.83;101854.03;4979536;28;20125;-79
2023/05/14 01:22:04;;;;;;;146.75;64.28;;;;;;;18.75;45.79;101832.03;5009917;28;20394;-78
2023/05/14 01:24:30;;;;;;;143.48;62.80;;;;;;;18.75;45.72;101839.97;4996000;28;20013;-79
2023/05/14 01:27:05;;;;;;;141.02;62.30;;;;;;;18.77;46.04;101847.00;4973564;28;20399;-78
2023/05/14 01:29:32;;;;;;;145.57;62.92;;;;;;;18.75;45.34;101842.59;5000777;28;20441;-78
2023/05/14 01:31:59;;;;;;;148.77;62.80;;;;;;;18.74;45.50;101838.22;5002657;28;20056;-78
2023/05/14 01:34:27;;;;;;;142.63;62.72;;;;;;;18.69;45.38;101840.19;4996680;28;20347;-79
2023/05/14 01:36:53;;;;;;;143.88;61.40;;;;;;;18.73;45.83;101840.91;4981286;28;20026;-80
2023/05/14 01:39:19;;;;;;;162.55;65.35;;;;;;;18.75;45.88;101834.66;4992373;28;20041;-77
2023/05/14 01:41:45;;;;;;;154.98;63.80;;;;;;;18.79;45.83;101840.75;4977869;28;20117;-79
2023/05/14 01:44:11;;;;;;;166.00;64.60;;;;;;;18.79;46.02;101839.84;4990908;28;20026;-77
2023/05/14 01:46:36;;;;;;;139.50;60.63;;;;;;;18.77;45.89;101836.41;4992202;28;20026;-78
2023/05/14 01:49:02;;;;;;;147.10;63.60;;;;;;;18.78;46.27;101833.72;4995831;28;20064;-80
2023/05/14 01:51:27;;;;;;;143.25;61.35;;;;;;;18.78;46.63;101836.34;4995513;28;20045;-77
2023/05/14 01:53:52;;;;;;;143.95;63.08;;;;;;;18.79;46.35;101835.44;4994580;28;20040;-77
2023/05/14 01:56:20;;;;;;;147.73;61.97;;;;;;;18.78;46.54;101836.34;4994109;28;20064;-77
2023/05/14 01:58:46;;;;;;;148.73;60.72;;;;;;;18.77;46.68;101831.13;5011036;28;20073;-79
2023/05/14 02:01:11;;;;;;;143.63;60.70;;;;;;;18.74;46.90;101832.94;5012274;28;20026;-79
2023/05/14 02:03:37;;;;;;;140.63;61.80;;;;;;;18.73;46.65;101825.03;4997546;28;20033;-77
2023/05/14 02:06:02;;;;;;;145.02;62.65;;;;;;;18.70;46.66;101831.28;5001519;28;20038;-77
2023/05/14 02:08:27;;;;;;;133.00;59.67;;;;;;;18.69;46.92;101826.06;5012216;28;20028;-79
2023/05/14 02:10:53;;;;;;;145.98;61.70;;;;;;;18.69;46.62;101831.34;4994565;28;20018;-79
2023/05/14 02:13:19;;;;;;;139.82;62.72;;;;;;;18.67;46.82;101828.75;4994191;28;20025;-77
2023/05/14 02:15:45;;;;;;;141.35;60.70;;;;;;;18.65;47.09;101827.97;4977846;28;20084;-78
2023/05/14 02:18:10;;;;;;;145.70;60.95;;;;;;;18.65;47.12;101833.25;4994180;28;20026;-77
2023/05/14 02:20:35;;;;;;;137.48;59.95;;;;;;;18.64;47.20;101831.50;4997160;28;20437;-78
2023/05/14 02:23:01;;;;;;;140.57;61.92;;;;;;;18.63;46.82;101832.41;4994403;28;20033;-78
2023/05/14 02:25:26;;;;;;;144.52;62.47;;;;;;;18.60;47.16;101824.59;4994109;28;20533;-77
2023/05/14 02:27:51;;;;;;;142.02;63.78;;;;;;;18.61;47.79;101828.97;4994425;28;20029;-78
2023/05/14 02:30:17;;;;;;;143.05;63.70;;;;;;;18.60;47.40;101821.94;4993376;28;20029;-78
2023/05/14 02:32:42;;;;;;;136.52;62.83;;;;;;;18.58;47.71;101831.69;4993802;28;20562;-77
2023/05/14 02:35:08;;;;;;;143.15;63.10;;;;;;;18.59;47.81;101823.69;4993935;28;20022;-77
2023/05/14 02:37:33;;;;;;;142.32;63.40;;;;;;;18.59;47.16;101823.69;4996292;28;20022;-77
2023/05/14 02:39:59;;;;;;;155.38;64.15;;;;;;;18.58;47.07;101822.00;5011086;28;20030;-77
2023/05/14 02:42:24;;;;;;;141.05;61.00;;;;;;;18.57;48.03;101814.09;4978966;28;20090;-77
2023/05/14 02:44:51;;;;;;;141.75;60.97;;;;;;;18.55;47.27;101811.47;5000793;28;20390;-77
2023/05/14 02:47:16;;;;;;;135.52;60.70;;;;;;;18.56;47.35;101813.22;5003585;28;20029;-77
2023/05/14 02:49:41;;;;;;;144.15;63.58;;;;;;;18.58;47.75;101814.06;4990438;28;20021;-78
2023/05/14 02:52:07;;;;;;;144.70;61.83;;;;;;;18.57;47.38;101814.09;4993659;28;20410;-78
2023/05/14 02:54:32;;;;;;;143.75;62.15;;;;;;;18.56;47.79;101809.72;4995420;28;20511;-77
2023/05/14 02:56:57;;;;;;;142.05;63.28;;;;;;;18.56;47.76;101812.38;4997950;28;20407;-77
2023/05/14 02:59:23;;;;;;;134.77;61.08;;;;;;;18.56;47.69;101807.06;5008145;28;20323;-77
2023/05/14 03:01:49;;;;;;;143.85;62.67;;;;;;;18.55;47.81;101805.34;5015981;28;20036;-77
2023/05/14 03:04:14;;;;;;;163.73;65.93;;;;;;;18.56;48.45;101812.38;5019346;28;20082;-78
2023/05/14 03:06:40;;;;;;;148.20;63.65;;;;;;;18.56;48.05;101812.38;5019912;28;20101;-77
2023/05/14 03:09:06;;;;;;;136.75;61.38;;;;;;;18.54;48.34;101812.41;5009679;28;20552;-76
2023/05/14 03:11:31;;;;;;;141.50;61.45;;;;;;;18.56;47.84;101807.06;5014197;28;20085;-77
2023/05/14 03:13:56;;;;;;;143.38;62.95;;;;;;;18.54;48.48;101809.78;5019500;28;20053;-78
2023/05/14 03:16:22;;;;;;;144.75;62.53;;;;;;;18.53;48.93;101810.69;5018760;28;20482;-77
2023/05/14 03:18:47;;;;;;;137.13;61.72;;;;;;;18.54;48.79;101816.81;5016316;28;20491;-77
2023/05/14 03:21:12;;;;;;;140.88;61.28;;;;;;;18.54;48.64;101808.88;4996126;28;20502;-77
2023/05/14 03:23:38;;;;;;;143.80;63.25;;;;;;;18.53;48.63;101807.19;4988524;28;20026;-76
2023/05/14 03:26:03;;;;;;;139.93;61.42;;;;;;;18.52;48.78;101811.59;5009155;28;20018;-76
2023/05/14 03:28:29;;;;;;;145.35;61.63;;;;;;;18.53;49.06;101804.53;5002762;28;20026;-76
2023/05/14 03:30:54;;;;;;;145.15;62.70;;;;;;;18.52;48.63;101813.38;5010702;28;20029;-77
2023/05/14 03:33:20;;;;;;;153.40;63.45;;;;;;;18.52;48.97;101816.03;4983449;28;20014;-77
2023/05/14 03:35:45;;;;;;;147.20;63.35;;;;;;;18.52;49.27;101814.25;4995399;28;20030;-77
2023/05/14 03:38:11;;;;;;;143.15;63.17;;;;;;;18.52;49.12;101800.16;5005670;28;20108;-77
2023/05/14 03:40:36;;;;;;;159.68;64.03;;;;;;;18.51;49.21;101804.56;4987720;28;20068;-77
2023/05/14 03:43:01;;;;;;;140.77;61.00;;;;;;;18.52;48.99;101808.94;4991690;28;20069;-77
2023/05/14 03:45:29;;;;;;;135.95;62.33;;;;;;;18.52;48.96;101806.31;4987970;28;20025;-76
2023/05/14 03:47:54;;;;;;;139.70;61.60;;;;;;;18.51;48.43;101804.56;5001910;28;20060;-77
2023/05/14 03:50:19;;;;;;;143.32;62.75;;;;;;;18.53;49.03;101804.53;5013315;28;20399;-77
2023/05/14 03:52:45;;;;;;;141.25;62.60;;;;;;;18.54;48.21;101808.88;5004922;28;20463;-77
2023/05/14 03:55:10;;;;;;;134.70;60.95;;;;;;;18.55;49.15;101816.78;4993292;28;20506;-77
2023/05/14 03:57:35;;;;;;;141.38;63.95;;;;;;;18.56;48.96;101815.88;4993720;28;20018;-77
2023/05/14 04:00:02;;;;;;;142.45;62.63;;;;;;;18.57;48.73;101814.09;4980582;28;20399;-76
2023/05/14 04:02:27;;;;;;;139.95;62.03;;;;;;;18.58;49.03;101810.53;4980517;28;20040;-76
2023/05/14 04:04:52;;;;;;;144.30;67.30;;;;;;;18.58;49.20;101815.81;5001590;28;20026;-77
2023/05/14 04:07:18;;;;;;;142.80;69.65;;;;;;;18.60;48.53;101819.28;4997189;28;20032;-77
2023/05/14 04:09:43;;;;;;;136.90;60.80;;;;;;;18.59;48.81;101812.25;5013190;28;20097;-76
2023/05/14 04:12:08;;;;;;;140.60;62.35;;;;;;;18.59;48.92;101806.97;5013005;28;20026;-77
2023/05/14 04:14:34;;;;;;;142.85;62.80;;;;;;;18.60;49.17;101814.00;5012698;28;20026;-77
2023/05/14 04:16:59;;;;;;;139.80;61.40;;;;;;;18.59;49.59;101807.81;5003177;28;20479;-77
2023/05/14 04:19:24;;;;;;;139.75;61.40;;;;;;;18.61;49.08;101810.44;4996335;28;20505;-77
2023/05/14 04:21:50;;;;;;;140.27;61.78;;;;;;;18.61;49.04;101810.44;4996495;28;20456;-76
2023/05/14 04:24:16;;;;;;;161.40;65.47;;;;;;;18.63;49.28;101811.25;4999233;28;20030;-77
2023/05/14 04:26:41;;;;;;;140.75;61.50;;;;;;;18.63;49.03;101815.69;4996682;28;20021;-78
2023/05/14 04:29:06;;;;;;;152.35;64.32;;;;;;;18.63;49.36;101816.53;4997924;28;20030;-77
2023/05/14 04:31:32;;;;;;;142.35;61.55;;;;;;;18.65;49.31;101812.09;4980043;28;20026;-77
2023/05/14 04:33:57;;;;;;;147.05;61.85;;;;;;;18.65;49.54;101803.25;4996326;28;20030;-77
2023/05/14 04:36:23;;;;;;;144.07;67.20;;;;;;;18.67;49.02;101809.38;4992929;28;20487;-77
2023/05/14 04:38:48;;;;;;;146.52;64.50;;;;;;;18.68;49.69;101811.97;4996831;28;20522;-77
2023/05/14 04:41:13;;;;;;;139.70;62.63;;;;;;;18.69;49.56;101812.81;5004905;28;20029;-77
2023/05/14 04:43:39;;;;;;;140.23;62.10;;;;;;;18.70;49.42;101815.41;4979866;28;20080;-77
2023/05/14 04:46:08;;;;;;;142.73;62.15;;;;;;;18.73;50.12;101814.47;5019256;28;20026;-78
2023/05/14 04:48:33;;;;;;;143.25;62.90;;;;;;;18.73;50.25;101815.34;4995625;28;20064;-78
2023/05/14 04:50:59;;;;;;;141.43;62.92;;;;;;;18.77;50.03;101809.94;4989852;28;20030;-78
2023/05/14 04:53:24;;;;;;;154.82;64.95;;;;;;;18.80;50.08;101815.13;5012388;28;20025;-77
2023/05/14 04:55:49;;;;;;;141.02;63.42;;;;;;;18.79;49.85;101814.28;5011796;28;20030;-78
2023/05/14 04:58:15;;;;;;;138.85;62.70;;;;;;;18.83;49.90;101815.91;5013487;28;20033;-77
2023/05/14 05:00:40;;;;;;;139.35;62.70;;;;;;;18.85;50.00;101814.03;4992569;28;20446;-77
2023/05/14 05:03:06;;;;;;;138.77;61.78;;;;;;;18.86;49.88;101813.13;4993684;28;20557;-77
2023/05/14 05:05:31;;;;;;;140.40;62.35;;;;;;;18.88;49.46;101813.13;4976011;28;20026;-78
2023/05/14 05:07:57;;;;;;;139.70;62.22;;;;;;;18.90;50.05;101812.16;4979330;28;20447;-77
2023/05/14 05:10:22;;;;;;;141.05;62.72;;;;;;;18.91;49.95;101807.75;4979231;28;20029;-77
2023/05/14 05:12:47;;;;;;;140.70;61.70;;;;;;;18.94;49.79;101806.75;5003523;28;20022;-78
2023/05/14 05:15:13;;;;;;;142.77;61.85;;;;;;;18.96;49.23;101807.56;5011980;28;20029;-77
2023/05/14 05:17:38;;;;;;;138.05;65.10;;;;;;;18.97;49.50;101807.53;5011860;28;20084;-77
2023/05/14 05:20:06;;;;;;;139.13;62.03;;;;;;;18.97;48.78;101794.28;5011737;28;20029;-78
2023/05/14 05:22:32;;;;;;;142.45;63.42;;;;;;;19.02;48.86;101804.69;5028200;28;20157;-78
2023/05/14 05:24:58;;;;;;;137.77;60.92;;;;;;;19.04;49.74;101809.03;5012361;28;20104;-77
2023/05/14 05:27:23;;;;;;;157.45;64.40;;;;;;;19.05;49.36;101805.47;4998861;28;20387;-78
2023/05/14 05:29:49;;;;;;;150.15;64.22;;;;;;;19.07;48.87;101802.78;4996307;28;20069;-77
2023/05/14 05:32:14;;;;;;;144.02;63.00;;;;;;;19.07;48.73;101810.72;4999148;28;20025;-77
2023/05/14 05:34:40;;;;;;;142.98;60.92;;;;;;;19.08;49.23;101805.34;5010202;28;20018;-78
2023/05/14 05:37:05;;;;;;;139.32;61.58;;;;;;;19.07;49.01;101798.38;4993222;28;20040;-78
2023/05/14 05:39:33;;;;;;;143.40;63.83;;;;;;;19.13;48.75;101817.56;4987465;28;20108;-77
2023/05/14 05:42:00;;;;;;;139.07;61.30;;;;;;;19.13;48.91;101809.63;4995652;28;20030;-78
2023/05/14 05:44:25;;;;;;;144.57;61.88;;;;;;;19.17;48.78;101813.91;4987845;28;20044;-76
2023/05/14 05:46:51;;;;;;;140.95;62.65;;;;;;;19.19;48.33;101812.09;4998990;28;20029;-77
2023/05/14 05:49:16;;;;;;;141.35;62.90;;;;;;;19.20;48.80;101813.81;5011301;28;20034;-77
2023/05/14 05:51:41;;;;;;;141.48;63.95;;;;;;;19.23;48.54;101811.06;4994789;28;20028;-77
2023/05/14 05:54:07;;;;;;;153.13;63.58;;;;;;;19.27;48.37;101820.63;4994264;28;20044;-79
2023/05/14 05:56:32;;;;;;;148.60;63.72;;;;;;;19.29;47.95;101809.97;4985707;28;20098;-78
2023/05/14 05:58:57;;;;;;;142.57;62.72;;;;;;;19.33;48.31;101817.75;5011486;28;20060;-78
2023/05/14 06:01:23;;;;;;;142.20;63.47;;;;;;;19.35;48.08;101815.91;5021355;28;20033;-79
2023/05/14 06:03:48;;;;;;;141.18;62.72;;;;;;;19.42;47.38;101820.06;4995133;28;20037;-78
2023/05/14 06:06:14;;;;;;;138.82;62.75;;;;;;;19.47;46.54;101816.41;4994815;28;20022;-79
2023/05/14 06:08:39;;;;;;;133.00;60.22;;;;;;;19.55;47.06;101814.34;4996040;28;20479;-79
2023/05/14 06:11:04;;;;;;;133.20;60.72;;;;;;;19.83;46.40;101819.53;5012451;28;20080;-79
2023/05/14 06:13:30;;;;;;;146.38;61.78;;;;;;;20.10;45.51;101820.25;4995999;28;20022;-79
2023/05/14 06:15:55;;;;;;;143.18;60.85;;;;;;;20.38;44.68;101818.31;4985987;28;20025;-79
2023/05/14 06:18:21;;;;;;;150.20;63.72;;;;;;;20.66;44.25;101815.41;4998815;28;20032;-77
2023/05/14 06:20:46;;;;;;;149.95;61.90;;;;;;;20.85;43.45;101822.69;5010832;28;20025;-76
2023/05/14 06:23:11;;;;;;;141.63;61.70;;;;;;;20.91;43.05;101819.75;5010876;28;20104;-78
2023/05/14 06:25:36;;;;;;;139.52;59.97;;;;;;;21.00;43.53;101819.38;4994030;28;20022;-77
2023/05/14 06:28:02;;;;;;;141.25;62.42;;;;;;;21.14;42.97;101815.25;4993907;28;20052;-77
2023/05/14 06:30:27;;;;;;;144.18;61.47;;;;;;;21.29;42.21;101811.94;4994219;28;20394;-78
2023/05/14 06:32:53;;;;;;;141.32;60.63;;;;;;;21.49;41.44;101821.69;5011767;28;20106;-78
2023/05/14 06:35:18;;;;;;;140.10;60.60;;;;;;;21.65;41.60;101816.59;4996587;28;20068;-78
2023/05/14 06:37:44;;;;;;;139.93;61.92;;;;;;;21.74;41.46;101816.16;5011213;28;20394;-77
2023/05/14 06:40:11;;;;;;;140.35;62.13;;;;;;;21.80;41.03;101809.72;5009079;28;20030;-78
2023/05/14 06:42:36;;;;;;;139.55;61.22;;;;;;;21.92;40.96;101810.91;4988664;28;20017;-77
2023/05/14 06:45:01;;;;;;;141.70;62.75;;;;;;;22.08;40.91;101803.94;4993086;28;20398;-77
2023/05/14 06:47:27;;;;;;;134.93;63.13;;;;;;;22.22;40.20;101799.78;4995162;28;20080;-77
2023/05/14 06:49:52;;;;;;;141.63;62.38;;;;;;;22.31;40.18;101804.66;5002074;28;20507;-77
2023/05/14 06:52:17;;;;;;;139.70;61.38;;;;;;;22.40;39.82;101809.56;4998551;28;20026;-77
2023/05/14 06:54:43;;;;;;;231.02;74.88;;;;;;;22.57;39.61;101802.56;5034317;22;20100;-75
2023/05/14 06:57:08;;;;;;;139.15;61.45;;;;;;;22.67;38.90;101798.47;5030926;28;20215;-75
2023/05/14 06:59:33;;;;;;;150.57;63.35;;;;;;;22.74;39.17;101802.59;5030981;28;20032;-76
2023/05/14 07:01:58;;;;;;;147.80;64.10;;;;;;;22.87;38.92;101801.97;5032384;28;20075;-75
2023/05/14 07:04:24;;;;;;;140.32;63.00;;;;;;;22.96;38.12;101801.50;5032237;28;20021;-76
2023/05/14 07:06:49;;;;;;;139.15;61.92;;;;;;;23.05;38.76;101801.00;5040153;28;20083;-76
2023/05/14 07:09:15;;;;;;;141.23;60.95;;;;;;;23.09;38.68;101797.25;5048736;28;20025;-76
2023/05/14 07:11:40;;;;;;;139.57;61.92;;;;;;;23.09;38.09;101796.38;5049628;28;20016;-73
2023/05/14 07:14:05;;;;;;;145.52;62.58;;;;;;;23.11;38.87;101790.03;5049525;28;20045;-74
2023/05/14 07:16:31;;;;;;;138.75;62.95;;;;;;;23.09;38.31;101794.56;5047893;28;20029;-74
2023/05/14 07:18:56;;;;;;;141.00;61.55;;;;;;;23.10;38.86;101790.13;5041585;28;20532;-74
2023/05/14 07:21:21;;;;;;;141.05;61.75;;;;;;;23.03;38.64;101786.91;5049494;28;20681;-74
2023/05/14 07:23:47;;;;;;;140.90;62.38;;;;;;;23.03;38.86;101780.72;5047783;28;20504;-74
2023/05/14 07:26:12;;;;;;;143.73;63.75;;;;;;;22.90;38.72;101783.16;5039760;28;20017;-74
2023/05/14 07:28:37;;;;;;;140.93;63.25;;;;;;;22.79;38.97;101789.03;5046783;28;20425;-74
2023/05/14 07:31:07;;;;;;;142.07;62.28;;;;;;;22.72;39.70;101775.16;5040509;28;20363;-74
2023/05/14 07:33:35;;;;;;;143.30;62.45;;;;;;;22.70;39.63;101784.16;5049031;28;20021;-74
2023/05/14 07:36:01;;;;;;;139.23;61.78;;;;;;;22.77;39.36;101774.94;5046652;28;20039;-74
2023/05/14 07:38:27;;;;;;;134.43;62.28;;;;;;;22.81;39.32;101778.28;5046959;28;20028;-74
2023/05/14 07:40:52;;;;;;;144.75;74.20;;;;;;;22.88;39.43;101774.41;5051522;28;20470;-76
2023/05/14 07:43:17;;;;;;;149.57;77.50;;;;;;;22.93;39.25;101769.66;5031102;28;20031;-76
2023/05/14 07:45:43;;;;;;;149.77;72.95;;;;;;;22.95;39.19;101762.47;5053633;28;20036;-76
2023/05/14 07:48:08;;;;;;;150.20;73.32;;;;;;;22.95;39.24;101758.00;5036962;28;20032;-75
2023/05/14 07:50:33;;;;;;;146.65;75.53;;;;;;;22.95;39.41;101762.47;5047109;28;20020;-75
2023/05/14 07:52:59;;;;;;;143.98;73.97;;;;;;;22.93;39.26;101759.91;5054367;28;20025;-75
2023/05/14 07:55:24;;;;;;;153.18;75.35;;;;;;;22.89;39.09;101762.78;5038247;28;20059;-76
2023/05/14 07:57:50;;;;;;;137.48;61.58;;;;;;;22.92;39.78;101759.97;5034505;28;20043;-75
2023/05/14 08:00:15;;;;;;;150.07;66.55;;;;;;;22.87;39.15;101757.53;5046960;28;20025;-74
2023/05/14 08:02:41;;;;;;;136.82;61.55;;;;;;;22.89;39.81;101752.13;5051900;28;20021;-75
2023/05/14 08:05:07;;;;;;;139.35;62.95;;;;;;;22.87;39.30;101767.34;5052747;28;20051;-75
2023/05/14 08:07:33;;;;;;;144.05;63.35;;;;;;;22.86;39.07;101758.47;5052804;28;20021;-75
2023/05/14 08:09:58;;;;;;;150.23;63.22;;;;;;;22.86;39.27;101758.47;5049704;28;20081;-75
2023/05/14 08:12:24;;;;;;;143.50;63.95;;;;;;;22.85;39.18;101756.75;5035305;28;20443;-75
2023/05/14 08:14:49;;;;;;;130.00;61.53;;;;;;;22.83;40.02;101755.13;5032298;28;20025;-75
2023/05/14 08:17:15;;;;;;;140.65;64.85;;;;;;;22.79;39.12;101757.91;5034009;28;20478;-75
2023/05/14 08:19:40;;;;;;;136.95;62.03;;;;;;;22.75;39.74;101761.69;5042252;28;20502;-75
2023/05/14 08:22:06;;;;;;;138.95;62.75;;;;;;;22.74;39.63;101751.09;5052165;28;20397;-75
2023/05/14 08:24:31;;;;;;;159.57;65.68;;;;;;;22.69;39.71;101751.34;5049990;28;20385;-75
2023/05/14 08:26:56;;;;;;;130.80;61.20;;;;;;;22.66;40.29;101745.31;5052124;28;20055;-75
2023/05/14 08:29:22;;;;;;;144.68;63.92;;;;;;;22.62;39.69;101741.97;5054547;28;20021;-76
2023/05/14 08:31:48;;;;;;;138.52;61.42;;;;;;;22.58;40.19;101743.91;5051075;28;20430;-75
2023/05/14 08:34:14;;;;;;;152.10;63.35;;;;;;;22.58;40.08;101737.72;5055254;28;20016;-75
2023/05/14 08:36:39;;;;;;;137.82;61.80;;;;;;;22.57;40.06;101743.97;5057478;28;20043;-75
2023/05/14 08:39:06;;;;;;;135.45;61.40;;;;;;;22.56;40.35;101743.09;5052144;28;20025;-75
2023/05/14 08:41:32;;;;;;;139.60;61.83;;;;;;;22.56;39.89;101745.75;5051034;28;20116;-75
2023/05/14 08:44:00;;;;;;;138.02;61.90;;;;;;;22.51;40.04;101730.97;5052287;28;20479;-75
2023/05/14 08:46:26;;;;;;;142.65;63.75;;;;;;;22.49;40.32;101733.72;5063983;28;20033;-74
2023/05/14 08:48:59;;;;;;;137.68;61.97;;;;;;;22.49;40.34;101728.38;5050939;28;20021;-75
2023/05/14 08:51:25;;;;;;;141.63;62.65;;;;;;;22.49;40.26;101733.72;5048183;28;20060;-75
2023/05/14 08:53:51;;;;;;;138.10;61.50;;;;;;;22.48;40.72;101726.66;5051466;28;20048;-74
2023/05/14 08:56:17;;;;;;;140.43;63.38;;;;;;;22.43;40.68;101721.56;5040622;28;20490;-74
2023/05/14 08:58:42;;;;;;;139.73;62.42;;;;;;;22.41;40.56;101717.25;5049430;28;20123;-74
2023/05/14 09:01:07;;;;;;;137.50;61.97;;;;;;;22.41;40.60;101711.94;5053036;28;20104;-75
2023/05/14 09:03:33;;;;;;;139.32;62.92;;;;;;;22.34;40.85;101711.38;5050472;28;20083;-74
2023/05/14 09:05:59;;;;;;;139.05;63.60;;;;;;;22.31;40.78;101714.16;5045219;28;20104;-75
2023/05/14 09:08:25;;;;;;;144.98;63.65;;;;;;;22.22;41.24;101709.28;5054184;28;20496;-75
2023/05/14 09:10:50;;;;;;;148.05;64.80;;;;;;;22.18;41.88;101718.38;5036614;28;20037;-75
2023/05/14 09:13:15;;;;;;;140.32;63.97;;;;;;;22.11;41.24;101710.69;5055435;28;20036;-75
2023/05/14 09:15:41;;;;;;;148.23;65.07;;;;;;;22.08;40.98;101710.81;5051163;28;20021;-75
2023/05/14 09:18:06;;;;;;;147.50;63.13;;;;;;;22.12;41.62;101708.91;5045237;28;20393;-75
2023/05/14 09:20:32;;;;;;;142.50;62.75;;;;;;;22.10;41.47;101703.66;5048283;28;20024;-74
2023/05/14 09:23:00;;;;;;;148.32;63.95;;;;;;;22.09;41.77;101696.59;5051117;28;20116;-74
2023/05/14 09:25:27;;;;;;;157.05;64.43;;;;;;;22.09;41.96;101696.59;5050791;28;20451;-75
2023/05/14 09:27:53;;;;;;;146.52;64.18;;;;;;;22.06;41.75;101694.09;5021251;28;20025;-75
2023/05/14 09:30:19;;;;;;;154.75;65.03;;;;;;;22.01;42.04;101690.78;5053271;28;20024;-76
2023/05/14 09:32:49;;;;;;;141.77;62.53;;;;;;;21.98;42.10;101690.94;5061139;28;20108;-75
2023/05/14 09:35:16;;;;;;;143.82;62.50;;;;;;;21.99;42.40;101687.38;5063770;28;20493;-75
2023/05/14 09:37:42;;;;;;;131.80;60.53;;;;;;;22.17;42.44;101695.34;5067055;28;20073;-76
2023/05/14 09:40:08;;;;;;;146.13;62.75;;;;;;;22.28;41.63;101687.72;5034076;28;20028;-75
2023/05/14 09:42:34;;;;;;;151.45;64.43;;;;;;;22.34;41.72;101682.09;5044846;28;20017;-74
2023/05/14 09:44:59;;;;;;;153.45;65.28;;;;;;;22.57;40.43;101682.75;5046266;28;20513;-74
2023/05/14 09:47:25;;;;;;;153.73;65.60;;;;;;;22.44;40.13;101678.06;5051153;28;20057;-73
2023/05/14 09:49:51;;;;;;;136.32;61.50;;;;;;;22.48;39.36;101678.75;5051271;28;20314;-73
2023/05/14 09:52:18;;;;;;;146.07;64.75;;;;;;;22.35;38.77;101673.19;5050310;28;20025;-74
2023/05/14 09:54:44;;;;;;;145.10;63.08;;;;;;;22.26;39.71;101676.28;5032989;28;20382;-74
2023/05/14 09:57:09;;;;;;;148.57;66.28;;;;;;;22.25;40.11;101666.56;5046796;28;20033;-74
2023/05/14 09:59:35;;;;;;;144.07;64.63;;;;;;;22.18;39.50;101670.47;5050749;28;20389;-74
2023/05/14 10:02:01;;;;;;;149.90;63.78;;;;;;;22.06;38.87;101663.97;5033250;28;20539;-74
2023/05/14 10:04:26;;;;;;;147.18;63.45;;;;;;;22.05;38.65;101665.75;5049451;28;20489;-75
2023/05/14 10:06:52;;;;;;;147.18;63.95;;;;;;;22.10;37.49;101669.06;5042047;28;20099;-73
2023/05/14 10:09:20;;;;;;;149.85;65.22;;;;;;;22.12;37.67;101661.84;5050092;28;20466;-73
2023/05/14 10:11:48;;;;;;;145.05;65.43;;;;;;;22.20;36.55;101655.31;5033420;28;20029;-73
2023/05/14 10:14:24;;;;;;;160.77;66.85;;;;;;;22.26;35.76;101657.66;5042842;28;20023;-74
2023/05/14 10:16:50;;;;;;;146.07;65.53;;;;;;;22.12;36.64;101661.00;5048394;28;20025;-73
2023/05/14 10:19:17;;;;;;;138.07;64.05;;;;;;;22.15;35.51;101660.00;5050750;28;20027;-72
2023/05/14 10:21:44;;;;;;;134.27;63.42;;;;;;;22.15;35.29;101655.53;5038431;28;20031;-73
2023/05/14 10:24:10;;;;;;;157.60;65.90;;;;;;;22.18;35.28;101647.38;5048432;28;20071;-74
2023/05/14 10:26:38;;;;;;;141.70;64.45;;;;;;;22.18;34.82;101638.56;5049509;28;20025;-74
2023/05/14 10:29:04;;;;;;;151.05;67.10;;;;;;;22.08;35.38;101651.44;5047952;28;20031;-74
2023/05/14 10:31:52;;;;;;;140.40;62.88;;;;;;;22.11;35.05;101653.94;5031726;28;20060;-74
2023/05/14 10:34:42;;;;;;;158.05;66.70;;;;;;;22.07;34.73;101647.94;5044153;28;20430;-74
2023/05/14 10:37:10;;;;;;;144.77;64.40;;;;;;;22.00;35.02;101645.66;5042475;28;20057;-73
2023/05/14 10:39:58;;;;;;;142.90;64.50;;;;;;;22.06;34.89;101646.22;5048940;28;20028;-74
2023/05/14 10:42:34;;;;;;;141.55;63.65;;;;;;;22.04;34.96;101640.09;5031716;28;20025;-74
2023/05/14 10:45:01;;;;;;;142.23;65.50;;;;;;;21.99;34.64;101630.63;5041003;28;20410;-73
2023/05/14 10:47:30;;;;;;;135.40;64.45;;;;;;;21.91;35.41;101636.31;5049479;28;20485;-73
2023/05/14 10:49:59;;;;;;;161.02;67.80;;;;;;;21.84;35.60;101632.25;5047535;28;20482;-74
2023/05/14 10:52:25;;;;;;;142.80;65.57;;;;;;;21.87;34.71;101632.09;5023563;28;20025;-73
2023/05/14 10:54:55;;;;;;;145.27;64.53;;;;;;;21.78;35.13;101625.44;5047936;28;20123;-74
2023/05/14 10:57:22;;;;;;;146.25;66.22;;;;;;;21.77;35.05;101629.91;5030895;28;20025;-73
2023/05/14 10:59:55;;;;;;;143.50;64.10;;;;;;;21.73;35.42;101628.31;5032845;28;20025;-74